ENSG

Sogndal Airport

Sogndal, Norway
METAR ENSG 161150Z 07003KT 9999 FEW002 M09/M09 Q1004 RMK WIND 3806FT 36006KT
Observed Flight Rules
Dec-16 @ 11:50 UTC (3 hours ago) Visual Flight Rules
Wind Visibility Clouds
70° at 3 knots 10,000+ meters
  • Few at 200' AGL
Temperatures Readings
Current -9°C / 16°F
Dewpoint -9°C / 16°F
Humidity 100%
Altimeter 29.65" Hg
Pressure 1004 hPa
Elevation 497
METAR ENSG 161150Z 07003KT 9999 FEW002 M09/M09 Q1004 RMK WIND 3806FT 36006KT
Observed Flight Rules
Dec-16 @ 11:50 UTC
(3 hours ago)
VFR
Wind Visibility
70° at 3 knots 10,000+ meters
Clouds
  • Few at 200' AGL
Temperature Dewpoint
-9°C / 16°F -9°C / 16°F
Humidity Altimeter Pressure
100% 29.65" Hg 1004 hPa